Das aktuelle Wetter und Webcams in Palma De Mallorca

Wetterbericht für Palma De Mallorca
Temperature: 25 °C
aktualisiert am: Tuesday, 27. 06. 2017, at: 0:00:00 GMT
Temperatur: 25° C / (77° F)
Taupunkt 22° C / (71.6° F) no Information
Luftfeuchtigkeit: 83 %
Wind: 3 knots, from: S S W
Wolken: no Information
Niederschlag: none  
Metar Data : 2017/06/27 00:00 LEPA 270000Z 20003KT CAVOK 25/22 Q1010 NOSIG

Wetterberichte aller Inseln:

   

Sprache ändern     Change language     cambiar idioma


Webcams in Palma De Mallorca

Dorint Royal Golfresort & Spa Camp de Mar/Mallorca.   Iberostar Pinos Park Font De Sa Cala
mallorca   mallorca
Palma de Mallorca   El Arenal
  mallorca

Wissenswertes über Palma De Mallorca

| Los Cristianos | Playa Las Vistas | Reveron Plaza | Playa Fañabe | Alta Amadores | | Puerto Rico | La Jandia | ΘΕΛηΜα |